Time;durP1;ratioP1;P1;durP2;ratioP2;P2;SDS_P1;SDS_P2;PMS_P1;PMS_P2;Temp;Humidity;BMP_temperature;BMP_pressure;BME280_temperature;BME280_humidity;BME280_pressure;Samples;Min_cycle;Max_cycle;Signal;HPM_P1;HPM_P2
2022/10/13 00:00:45;;;;;;;3.67;2.83;;;;;;;;;;5128146;27;20054;-78
2022/10/13 00:03:17;;;;;;;3.28;2.42;;;;;;;;;;5128899;27;20409;-75
2022/10/13 00:05:49;;;;;;;6.70;3.42;;;;;;;;;;5128555;27;20051;-77
2022/10/13 00:08:21;;;;;;;4.90;3.17;;;;;;;;;;5128115;27;20049;-78
2022/10/13 00:10:51;;;;;;;3.92;3.15;;;;;;;;;;5128643;27;20055;-76
2022/10/13 00:13:24;;;;;;;7.43;3.30;;;;;;;;;;5128828;27;20417;-77
2022/10/13 00:15:54;;;;;;;7.18;3.58;;;;;;;;;;5129202;27;20054;-75
2022/10/13 00:18:23;;;;;;;5.70;3.60;;;;;;;;;;5126852;27;20043;-77
2022/10/13 00:20:55;;;;;;;4.65;3.00;;;;;;;;;;5128799;27;20061;-77
2022/10/13 00:23:25;;;;;;;6.10;2.92;;;;;;;;;;5128142;27;20873;-75
2022/10/13 00:25:56;;;;;;;3.88;2.53;;;;;;;;;;5128034;27;20517;-77
2022/10/13 00:28:25;;;;;;;4.32;2.45;;;;;;;;;;5127908;27;20435;-76
2022/10/13 00:30:55;;;;;;;4.15;3.00;;;;;;;;;;5127805;27;20050;-75
2022/10/13 00:33:25;;;;;;;3.47;2.83;;;;;;;;;;5127740;27;20062;-75
2022/10/13 00:35:55;;;;;;;3.97;2.67;;;;;;;;;;5128453;27;20051;-75
2022/10/13 00:38:25;;;;;;;8.20;2.75;;;;;;;;;;5127960;27;20050;-73
2022/10/13 00:40:56;;;;;;;6.18;3.30;;;;;;;;;;5128403;27;20043;-76
2022/10/13 00:43:50;;;;;;;5.18;3.25;;;;;;;;;;5128227;27;20092;-74
2022/10/13 00:46:22;;;;;;;4.30;3.17;;;;;;;;;;5123209;27;20059;-74
2022/10/13 00:49:16;;;;;;;6.78;3.55;;;;;;;;;;5127645;27;20043;-74
2022/10/13 00:51:49;;;;;;;5.30;2.90;;;;;;;;;;5126628;27;20047;-73
2022/10/13 00:54:24;;;;;;;6.53;3.00;;;;;;;;;;5127684;27;20054;-74
2022/10/13 00:56:56;;;;;;;4.72;3.20;;;;;;;;;;5127442;27;20679;-75
2022/10/13 00:59:28;;;;;;;6.35;3.22;;;;;;;;;;5127873;27;20051;-75
2022/10/13 01:01:59;;;;;;;9.18;3.33;;;;;;;;;;5126778;27;20065;-75
2022/10/13 01:04:36;;;;;;;6.80;2.90;;;;;;;;;;5127863;27;20050;-77
2022/10/13 01:07:07;;;;;;;6.80;3.75;;;;;;;;;;5127815;27;20050;-76
2022/10/13 01:09:37;;;;;;;5.47;3.30;;;;;;;;;;5127512;27;20397;-77
2022/10/13 01:12:36;;;;;;;7.20;3.00;;;;;;;;;;5127203;27;20513;-75
2022/10/13 01:15:21;;;;;;;8.00;3.28;;;;;;;;;;5108018;27;20426;-75
2022/10/13 01:18:09;;;;;;;5.40;3.55;;;;;;;;;;5127181;27;20043;-74
2022/10/13 01:20:57;;;;;;;4.18;3.13;;;;;;;;;;5127422;27;20070;-74
2022/10/13 01:23:52;;;;;;;5.63;3.00;;;;;;;;;;5127737;27;20051;-78
2022/10/13 01:26:39;;;;;;;3.90;2.78;;;;;;;;;;5124943;27;20058;-77
2022/10/13 01:29:41;;;;;;;6.13;3.50;;;;;;;;;;5126352;27;20038;-77
2022/10/13 01:32:15;;;;;;;4.75;3.35;;;;;;;;;;5127104;27;20505;-76
2022/10/13 01:35:02;;;;;;;5.13;2.92;;;;;;;;;;5127364;27;20038;-76
2022/10/13 01:37:53;;;;;;;4.63;3.28;;;;;;;;;;5126999;27;20059;-79
2022/10/13 01:40:50;;;;;;;9.18;3.90;;;;;;;;;;5126410;27;20051;-74
2022/10/13 01:43:25;;;;;;;7.32;3.35;;;;;;;;;;5126914;27;20051;-75
2022/10/13 01:45:58;;;;;;;6.82;3.40;;;;;;;;;;5126954;27;20035;-75
2022/10/13 01:48:30;;;;;;;5.15;3.22;;;;;;;;;;5126662;28;20044;-74
2022/10/13 01:51:00;;;;;;;5.20;3.10;;;;;;;;;;5127070;28;20505;-75
2022/10/13 01:53:31;;;;;;;4.97;2.47;;;;;;;;;;5126986;28;20042;-78
2022/10/13 01:56:00;;;;;;;4.78;3.15;;;;;;;;;;5127227;28;20055;-79
2022/10/13 01:58:33;;;;;;;8.65;3.47;;;;;;;;;;5127525;28;20417;-75
2022/10/13 02:01:31;;;;;;;7.18;2.85;;;;;;;;;;5127267;28;20043;-76
2022/10/13 02:04:07;;;;;;;9.93;3.75;;;;;;;;;;5125791;27;20059;-76
2022/10/13 02:07:09;;;;;;;5.97;3.00;;;;;;;;;;5126810;28;20039;-78
2022/10/13 02:09:54;;;;;;;5.93;3.25;;;;;;;;;;5126946;28;20047;-74
2022/10/13 02:12:36;;;;;;;6.85;2.50;;;;;;;;;;5127023;28;20417;-74
2022/10/13 02:15:11;;;;;;;8.07;3.15;;;;;;;;;;5127378;28;20402;-75
2022/10/13 02:17:41;;;;;;;5.65;2.63;;;;;;;;;;5127719;28;20051;-77
2022/10/13 02:20:14;;;;;;;5.93;3.20;;;;;;;;;;5130138;27;20405;-75
2022/10/13 02:22:48;;;;;;;4.40;3.10;;;;;;;;;;5131345;27;20047;-76
2022/10/13 02:25:18;;;;;;;8.07;3.05;;;;;;;;;;5130678;27;20066;-75
2022/10/13 02:27:52;;;;;;;6.50;2.83;;;;;;;;;;5129831;27;20066;-75
2022/10/13 02:30:26;;;;;;;5.45;2.83;;;;;;;;;;5130458;27;20627;-75
2022/10/13 02:32:56;;;;;;;3.05;2.10;;;;;;;;;;5130675;27;20039;-75
2022/10/13 02:35:26;;;;;;;4.75;2.10;;;;;;;;;;5130794;27;20047;-76
2022/10/13 02:38:01;;;;;;;8.27;2.65;;;;;;;;;;5130011;27;20047;-77
2022/10/13 02:40:31;;;;;;;11.43;3.10;;;;;;;;;;5131059;27;20031;-76
2022/10/13 02:43:01;;;;;;;3.28;2.60;;;;;;;;;;5130727;27;20047;-75
2022/10/13 02:45:30;;;;;;;;;;;;;;;;;;5129881;27;20043;-73
2022/10/13 02:48:00;;;;;;;3.58;1.80;;;;;;;;;;5131541;27;19996;-76
2022/10/13 02:50:31;;;;;;;4.70;2.38;;;;;;;;;;5129071;27;20058;-75
2022/10/13 02:53:00;;;;;;;3.03;2.20;;;;;;;;;;5130393;27;20066;-78
2022/10/13 02:55:30;;;;;;;;;;;;;;;;;;5130769;27;20070;-76
2022/10/13 02:57:59;;;;;;;4.95;2.30;;;;;;;;;;5130763;27;19926;-75
2022/10/13 03:00:28;;;;;;;;;;;;;;;;;;5129932;27;20043;-73
2022/10/13 03:02:58;;;;;;;7.32;2.28;;;;;;;;;;5129922;27;19920;-76
2022/10/13 03:05:28;;;;;;;3.85;2.13;;;;;;;;;;5130163;27;20040;-75
2022/10/13 03:07:58;;;;;;;;;;;;;;;;;;5130544;27;20391;-75
2022/10/13 03:10:29;;;;;;;3.90;2.38;;;;;;;;;;5129621;27;20381;-77
2022/10/13 03:12:59;;;;;;;7.40;2.78;;;;;;;;;;5130180;27;20054;-74
2022/10/13 03:15:29;;;;;;;4.60;2.70;;;;;;;;;;5129300;27;20054;-76
2022/10/13 03:17:59;;;;;;;3.78;2.20;;;;;;;;;;5129219;27;20047;-74
2022/10/13 03:20:28;;;;;;;;;;;;;;;;;;5130663;27;20140;-73
2022/10/13 03:22:58;;;;;;;4.05;2.33;;;;;;;;;;5129651;27;19923;-78
2022/10/13 03:25:29;;;;;;;7.05;2.88;;;;;;;;;;5130002;27;20039;-76
2022/10/13 03:27:58;;;;;;;5.07;2.58;;;;;;;;;;5129316;27;20043;-75
2022/10/13 03:30:30;;;;;;;6.80;2.53;;;;;;;;;;5129721;27;20532;-78
2022/10/13 03:33:00;;;;;;;8.20;3.22;;;;;;;;;;5129524;27;20046;-76
2022/10/13 03:35:30;;;;;;;4.13;2.45;;;;;;;;;;5128402;27;20047;-75
2022/10/13 03:37:59;;;;;;;;;;;;;;;;;;5128860;27;20047;-73
2022/10/13 03:40:30;;;;;;;10.20;2.80;;;;;;;;;;5129085;27;19919;-76
2022/10/13 03:42:59;;;;;;;5.43;3.28;;;;;;;;;;5129312;27;20039;-74
2022/10/13 03:45:30;;;;;;;5.25;3.13;;;;;;;;;;5129045;27;20042;-75
2022/10/13 03:48:01;;;;;;;5.78;3.42;;;;;;;;;;5129490;27;20055;-74
2022/10/13 03:50:30;;;;;;;;;;;;;;;;;;5129986;27;20497;-74
2022/10/13 03:53:00;;;;;;;9.30;2.70;;;;;;;;;;5128753;27;20314;-76
2022/10/13 03:55:29;;;;;;;;;;;;;;;;;;5130054;27;20066;-77
2022/10/13 03:57:59;;;;;;;10.73;3.53;;;;;;;;;;5129493;27;19927;-73
2022/10/13 04:00:28;;;;;;;;;;;;;;;;;;5130075;27;20046;-77
2022/10/13 04:02:58;;;;;;;6.25;2.90;;;;;;;;;;5128745;27;19924;-76
2022/10/13 04:05:28;;;;;;;6.22;3.30;;;;;;;;;;5128421;27;20043;-74
2022/10/13 04:07:58;;;;;;;;;;;;;;;;;;5128966;27;20055;-74
2022/10/13 04:10:28;;;;;;;10.55;2.65;;;;;;;;;;5127844;27;19945;-75
2022/10/13 04:12:57;;;;;;;;;;;;;;;;;;5128375;27;20429;-76
2022/10/13 04:15:27;;;;;;;4.80;2.75;;;;;;;;;;5127718;27;19924;-76
2022/10/13 04:17:57;;;;;;;4.90;3.22;;;;;;;;;;5127321;27;20054;-77
2022/10/13 04:20:27;;;;;;;4.45;2.83;;;;;;;;;;5128404;27;20039;-75
2022/10/13 04:22:56;;;;;;;18.20;3.08;;;;;;;;;;5128388;27;20047;-74
2022/10/13 04:25:26;;;;;;;18.08;2.90;;;;;;;;;;5129196;27;20502;-77
2022/10/13 04:27:56;;;;;;;26.05;2.67;;;;;;;;;;5128594;27;20410;-75
2022/10/13 04:30:26;;;;;;;14.95;3.95;;;;;;;;;;5128095;27;20494;-77
2022/10/13 04:32:56;;;;;;;48.38;3.63;;;;;;;;;;5128363;27;20055;-77
2022/10/13 04:35:25;;;;;;;11.85;4.15;;;;;;;;;;5127947;27;20382;-76
2022/10/13 04:37:58;;;;;;;18.25;2.90;;;;;;;;;;5128206;27;20532;-76
2022/10/13 04:40:28;;;;;;;4.90;2.47;;;;;;;;;;5127843;27;20054;-75
2022/10/13 04:42:58;;;;;;;5.35;2.78;;;;;;;;;;5127641;27;20050;-77
2022/10/13 04:45:27;;;;;;;;;;;;;;;;;;5129056;27;20051;-75
2022/10/13 04:47:57;;;;;;;3.95;2.45;;;;;;;;;;5128111;27;19927;-79
2022/10/13 04:50:27;;;;;;;20.98;2.70;;;;;;;;;;5128592;27;20054;-74
2022/10/13 04:53:00;;;;;;;53.83;3.30;;;;;;;;;;5127987;27;20042;-74
2022/10/13 04:55:34;;;;;;;9.32;2.40;;;;;;;;;;5127581;27;20054;-74
2022/10/13 04:58:03;;;;;;;4.45;2.50;;;;;;;;;;5127768;27;20151;-76
2022/10/13 05:00:33;;;;;;;;;;;;;;;;;;5128008;27;20050;-75
2022/10/13 05:03:03;;;;;;;3.28;2.13;;;;;;;;;;5127441;27;20385;-74
2022/10/13 05:05:34;;;;;;;;;;;;;;;;;;5128116;27;20074;-74
2022/10/13 05:08:04;;;;;;;3.97;2.40;;;;;;;;;;5128362;27;19927;-74
2022/10/13 05:10:34;;;;;;;3.60;2.10;;;;;;;;;;5127986;27;20055;-75
2022/10/13 05:13:03;;;;;;;2.88;2.20;;;;;;;;;;5127744;27;20497;-74
2022/10/13 05:15:33;;;;;;;;;;;;;;;;;;5127230;27;20528;-76
2022/10/13 05:18:02;;;;;;;52.88;3.30;;;;;;;;;;5127546;27;19934;-76
2022/10/13 05:20:32;;;;;;;;;;;;;;;;;;5128011;27;20051;-74
2022/10/13 05:23:01;;;;;;;32.42;2.50;;;;;;;;;;5127630;27;19931;-75
2022/10/13 05:25:31;;;;;;;7.75;2.35;;;;;;;;;;5127095;27;20146;-75
2022/10/13 05:28:05;;;;;;;30.52;2.75;;;;;;;;;;5126847;27;20051;-76
2022/10/13 05:30:35;;;;;;;37.45;2.80;;;;;;;;;;5127968;27;20043;-75
2022/10/13 05:33:05;;;;;;;25.17;3.30;;;;;;;;;;5126458;27;20414;-74
2022/10/13 05:35:35;;;;;;;21.58;3.00;;;;;;;;;;5127872;27;20039;-76
2022/10/13 05:38:05;;;;;;;32.72;3.03;;;;;;;;;;5127431;27;20047;-76
2022/10/13 05:40:34;;;;;;;;;;;;;;;;;;5128145;27;20059;-74
2022/10/13 05:43:05;;;;;;;17.38;2.13;;;;;;;;;;5126889;27;19919;-75
2022/10/13 05:45:36;;;;;;;9.73;2.28;;;;;;;;;;5126932;27;20048;-74
2022/10/13 05:48:06;;;;;;;24.42;2.58;;;;;;;;;;5127657;28;20047;-75
2022/10/13 05:50:36;;;;;;;69.38;3.70;;;;;;;;;;5127280;28;20046;-74
2022/10/13 05:53:06;;;;;;;60.80;3.90;;;;;;;;;;5127306;27;20035;-73
2022/10/13 05:55:37;;;;;;;;;;;;;;;;;;5131521;27;20490;-76
2022/10/13 05:58:07;;;;;;;42.25;2.45;;;;;;;;;;5131093;27;19924;-74
2022/10/13 06:00:36;;;;;;;100.32;3.22;;;;;;;;;;5131449;27;20047;-75
2022/10/13 06:03:11;;;;;;;;;;;;;;;;;;5132540;27;20050;-75
2022/10/13 06:05:48;;;;;;;35.63;2.25;;;;;;;;;;5131112;27;19919;-76
2022/10/13 06:08:19;;;;;;;23.80;2.58;;;;;;;;;;5131172;27;20039;-75
2022/10/13 06:10:52;;;;;;;6.78;2.40;;;;;;;;;;5130908;27;20055;-75
2022/10/13 06:13:23;;;;;;;2.88;1.70;;;;;;;;;;5130865;27;20039;-75
2022/10/13 06:15:53;;;;;;;6.35;2.17;;;;;;;;;;5129561;27;20046;-74
2022/10/13 06:18:23;;;;;;;7.43;1.90;;;;;;;;;;5131034;27;20047;-75
2022/10/13 06:20:52;;;;;;;8.77;1.67;;;;;;;;;;5130864;27;20047;-75
2022/10/13 06:23:22;;;;;;;7.72;1.73;;;;;;;;;;5130118;27;20047;-75
2022/10/13 06:25:53;;;;;;;13.52;2.00;;;;;;;;;;5131334;27;20058;-74
2022/10/13 06:28:23;;;;;;;17.65;2.25;;;;;;;;;;5131347;27;20035;-75
2022/10/13 06:30:55;;;;;;;;;;;;;;;;;;5131355;27;20054;-75
2022/10/13 06:33:25;;;;;;;20.42;1.60;;;;;;;;;;5129799;27;20001;-76
2022/10/13 06:35:55;;;;;;;33.58;2.33;;;;;;;;;;5130876;27;20053;-75
2022/10/13 06:38:25;;;;;;;;;;;;;;;;;;5131053;27;20051;-75
2022/10/13 06:41:02;;;;;;;20.05;1.92;;;;;;;;;;5130645;27;20286;-75
2022/10/13 06:43:36;;;;;;;17.65;1.92;;;;;;;;;;5130239;27;20532;-75
2022/10/13 06:46:11;;;;;;;36.80;4.00;;;;;;;;;;5129653;27;20043;-75
2022/10/13 06:48:41;;;;;;;16.95;2.10;;;;;;;;;;5130518;27;20517;-76
2022/10/13 06:51:11;;;;;;;17.38;1.55;;;;;;;;;;5130926;27;20050;-75
2022/10/13 06:53:41;;;;;;;26.10;2.15;;;;;;;;;;5130033;27;20058;-76
2022/10/13 06:56:11;;;;;;;8.18;1.77;;;;;;;;;;5130245;27;20054;-75
2022/10/13 06:58:40;;;;;;;;;;;;;;;;;;5131243;27;20102;-75
2022/10/13 07:01:12;;;;;;;4.63;1.83;;;;;;;;;;5130281;27;20408;-75
2022/10/13 07:03:42;;;;;;;37.58;3.35;;;;;;;;;;5130803;27;20054;-76
2022/10/13 07:06:12;;;;;;;;;;;;;;;;;;5130349;27;20050;-75
2022/10/13 07:08:41;;;;;;;15.85;1.45;;;;;;;;;;5129712;27;19923;-75
2022/10/13 07:11:12;;;;;;;;;;;;;;;;;;5130568;27;20075;-74
2022/10/13 07:13:48;;;;;;;22.42;1.60;;;;;;;;;;5130280;27;20242;-76
2022/10/13 07:16:18;;;;;;;41.92;2.58;;;;;;;;;;5130081;27;20043;-76
2022/10/13 07:18:48;;;;;;;;;;;;;;;;;;5130384;27;20046;-75
2022/10/13 07:21:18;;;;;;;27.33;1.88;;;;;;;;;;5129519;27;19923;-75
2022/10/13 07:23:48;;;;;;;20.30;1.23;;;;;;;;;;5129836;27;20047;-75
2022/10/13 07:26:17;;;;;;;35.30;2.65;;;;;;;;;;5129767;27;20057;-75
2022/10/13 07:28:47;;;;;;;;;;;;;;;;;;5130085;27;20050;-75
2022/10/13 07:31:19;;;;;;;14.98;1.23;;;;;;;;;;5129560;27;19919;-74
2022/10/13 07:33:50;;;;;;;11.18;1.08;;;;;;;;;;5129747;27;20501;-75
2022/10/13 07:36:26;;;;;;;35.53;2.45;;;;;;;;;;5129873;27;20039;-76
2022/10/13 07:38:57;;;;;;;27.23;1.70;;;;;;;;;;5130307;27;20050;-75
2022/10/13 07:41:27;;;;;;;23.25;1.80;;;;;;;;;;5129175;27;20039;-75
2022/10/13 07:43:57;;;;;;;20.67;1.90;;;;;;;;;;5129389;27;20425;-76
2022/10/13 07:46:26;;;;;;;35.88;1.90;;;;;;;;;;5129173;27;20042;-74
2022/10/13 07:48:57;;;;;;;36.30;1.98;;;;;;;;;;5129219;27;20043;-75
2022/10/13 07:51:28;;;;;;;42.15;2.33;;;;;;;;;;5129038;27;20506;-75
2022/10/13 07:53:58;;;;;;;12.85;1.30;;;;;;;;;;5128721;27;20047;-75
2022/10/13 07:56:28;;;;;;;25.00;1.30;;;;;;;;;;5129296;27;20047;-76
2022/10/13 07:58:58;;;;;;;23.95;3.38;;;;;;;;;;5127679;27;20066;-76
2022/10/13 08:01:28;;;;;;;31.55;2.13;;;;;;;;;;5129484;27;20421;-75
2022/10/13 08:03:59;;;;;;;25.63;2.45;;;;;;;;;;5129616;27;20516;-75
2022/10/13 08:06:28;;;;;;;;;;;;;;;;;;5129255;27;20391;-75
2022/10/13 08:08:59;;;;;;;27.27;1.58;;;;;;;;;;5128423;27;20259;-75
2022/10/13 08:11:29;;;;;;;19.58;1.60;;;;;;;;;;5129033;27;20047;-76
2022/10/13 08:14:02;;;;;;;12.10;1.40;;;;;;;;;;5128756;27;20047;-76
2022/10/13 08:16:33;;;;;;;9.88;1.23;;;;;;;;;;5128247;27;20058;-75
2022/10/13 08:19:03;;;;;;;17.90;1.60;;;;;;;;;;5128815;27;20044;-75
2022/10/13 08:21:33;;;;;;;;;;;;;;;;;;5128212;27;20062;-75
2022/10/13 08:24:23;;;;;;;10.10;1.25;;;;;;;;;;5128566;27;19930;-75
2022/10/13 08:26:53;;;;;;;;;;;;;;;;;;5128878;27;20509;-74
2022/10/13 08:29:23;;;;;;;20.60;1.27;;;;;;;;;;5129052;27;19919;-75
2022/10/13 08:31:53;;;;;;;25.42;1.60;;;;;;;;;;5128627;27;20494;-75
2022/10/13 08:34:23;;;;;;;16.83;2.08;;;;;;;;;;5128480;27;20047;-75
2022/10/13 08:36:55;;;;;;;54.20;2.75;;;;;;;;;;5128124;27;20062;-74
2022/10/13 08:39:25;;;;;;;49.40;1.98;;;;;;;;;;5127052;27;20051;-75
2022/10/13 08:41:59;;;;;;;55.58;1.92;;;;;;;;;;5127294;27;20433;-79
2022/10/13 08:44:40;;;;;;;57.30;2.00;;;;;;;;;;5127939;27;20047;-75
2022/10/13 08:47:35;;;;;;;68.95;2.22;;;;;;;;;;5128049;27;20050;-74
2022/10/13 08:50:31;;;;;;;42.22;2.45;;;;;;;;;;5127544;27;20047;-76
2022/10/13 08:53:25;;;;;;;61.38;3.33;;;;;;;;;;5128845;27;20683;-75
2022/10/13 08:56:22;;;;;;;52.78;1.75;;;;;;;;;;5127757;27;20564;-74
2022/10/13 08:58:55;;;;;;;76.38;2.38;;;;;;;;;;5126740;27;20047;-76
2022/10/13 09:01:35;;;;;;;61.42;3.33;;;;;;;;;;5125861;27;20047;-74
2022/10/13 09:04:31;;;;;;;102.68;3.88;;;;;;;;;;5125895;27;20050;-76
2022/10/13 09:07:06;;;;;;;72.75;2.10;;;;;;;;;;5126705;27;20046;-75
2022/10/13 09:09:38;;;;;;;118.88;3.13;;;;;;;;;;5126837;27;20054;-74
2022/10/13 09:12:11;;;;;;;104.25;5.53;;;;;;;;;;5126819;27;20054;-73
2022/10/13 09:14:55;;;;;;;57.85;3.75;;;;;;;;;;5127517;27;20506;-74
2022/10/13 09:17:25;;;;;;;56.78;2.38;;;;;;;;;;5128420;27;20043;-74
2022/10/13 09:20:00;;;;;;;95.47;2.47;;;;;;;;;;5127924;27;20134;-74
2022/10/13 09:22:34;;;;;;;75.43;2.30;;;;;;;;;;5127613;27;20042;-75
2022/10/13 09:25:11;;;;;;;41.17;1.70;;;;;;;;;;5127489;27;20047;-75
2022/10/13 09:27:45;;;;;;;116.32;3.72;;;;;;;;;;5127273;27;20050;-75
2022/10/13 09:30:30;;;;;;;119.88;3.05;;;;;;;;;;5127415;27;20047;-74
2022/10/13 09:33:12;;;;;;;69.03;2.42;;;;;;;;;;5127283;27;20409;-73
2022/10/13 09:36:05;;;;;;;47.25;2.38;;;;;;;;;;5127243;27;20039;-74
2022/10/13 09:38:35;;;;;;;28.65;1.70;;;;;;;;;;5126823;27;20494;-74
2022/10/13 09:41:20;;;;;;;76.57;4.72;;;;;;;;;;5127074;27;20047;-73
2022/10/13 09:43:50;;;;;;;50.15;1.98;;;;;;;;;;5126479;27;20765;-74
2022/10/13 09:46:28;;;;;;;51.95;2.38;;;;;;;;;;5127901;27;20058;-74
2022/10/13 09:49:03;;;;;;;86.20;2.80;;;;;;;;;;5127260;27;20409;-75
2022/10/13 09:51:38;;;;;;;30.95;1.70;;;;;;;;;;5127002;27;20043;-80
2022/10/13 09:54:27;;;;;;;64.53;2.25;;;;;;;;;;5126823;28;20042;-80
2022/10/13 09:57:06;;;;;;;45.15;4.35;;;;;;;;;;5126729;27;20627;-74
2022/10/13 09:59:58;;;;;;;46.13;1.90;;;;;;;;;;5126790;28;20387;-76
2022/10/13 10:03:10;;;;;;;58.72;2.42;;;;;;;;;;5125260;28;20058;-75
2022/10/13 10:06:04;;;;;;;24.80;1.98;;;;;;;;;;5123088;28;20421;-76
2022/10/13 10:08:53;;;;;;;17.63;3.25;;;;;;;;;;5127372;28;20047;-74
2022/10/13 10:11:43;;;;;;;41.60;2.40;;;;;;;;;;5127289;28;20044;-74
2022/10/13 10:14:40;;;;;;;44.38;1.70;;;;;;;;;;5125922;27;20062;-75
2022/10/13 10:17:35;;;;;;;30.20;1.77;;;;;;;;;;5127309;28;20062;-75
2022/10/13 10:20:38;;;;;;;24.83;2.03;;;;;;;;;;5126893;28;20050;-74
2022/10/13 10:23:32;;;;;;;30.55;3.45;;;;;;;;;;5127084;28;20050;-75
2022/10/13 10:26:12;;;;;;;7.20;1.40;;;;;;;;;;5127196;28;20058;-80
2022/10/13 10:29:17;;;;;;;13.57;1.50;;;;;;;;;;5125512;28;20156;-75
2022/10/13 10:31:54;;;;;;;21.80;1.95;;;;;;;;;;5117807;28;20066;-75
2022/10/13 10:34:28;;;;;;;11.63;1.38;;;;;;;;;;5126846;28;20410;-76
2022/10/13 10:37:23;;;;;;;12.23;1.15;;;;;;;;;;5125790;28;20039;-76
2022/10/13 10:40:38;;;;;;;5.00;1.17;;;;;;;;;;5127577;27;20066;-76
2022/10/13 10:43:29;;;;;;;2.55;1.42;;;;;;;;;;5130875;27;20405;-77
2022/10/13 10:46:00;;;;;;;10.38;1.70;;;;;;;;;;5130527;27;20046;-74
2022/10/13 10:48:36;;;;;;;11.43;1.77;;;;;;;;;;5130427;27;20508;-76
2022/10/13 10:51:09;;;;;;;3.75;1.45;;;;;;;;;;5130117;27;20505;-75
2022/10/13 10:53:42;;;;;;;2.25;1.17;;;;;;;;;;5130432;27;20054;-76
2022/10/13 10:56:29;;;;;;;2.58;1.10;;;;;;;;;;5130093;27;20046;-74
2022/10/13 10:59:25;;;;;;;4.13;1.15;;;;;;;;;;5130336;27;20058;-77
2022/10/13 11:02:00;;;;;;;1.88;1.20;;;;;;;;;;5130332;27;20047;-75
2022/10/13 11:04:35;;;;;;;3.78;1.30;;;;;;;;;;5129740;27;20055;-77
2022/10/13 11:07:11;;;;;;;6.13;1.63;;;;;;;;;;5130517;27;20043;-73
2022/10/13 11:09:41;;;;;;;6.43;1.67;;;;;;;;;;5129822;27;20055;-75
2022/10/13 11:12:20;;;;;;;1.17;0.85;;;;;;;;;;5128123;27;20058;-77
2022/10/13 11:15:07;;;;;;;1.33;1.10;;;;;;;;;;5129800;27;20051;-73
2022/10/13 11:17:39;;;;;;;7.22;1.58;;;;;;;;;;5129251;27;20054;-72
2022/10/13 11:20:19;;;;;;;3.25;1.23;;;;;;;;;;5129718;27;20047;-74
2022/10/13 11:22:58;;;;;;;2.22;1.25;;;;;;;;;;5129567;27;20506;-74
2022/10/13 11:25:47;;;;;;;4.47;1.45;;;;;;;;;;5130020;27;20047;-73
2022/10/13 11:28:21;;;;;;;6.22;1.70;;;;;;;;;;5129545;27;20420;-77
2022/10/13 11:30:56;;;;;;;4.25;1.50;;;;;;;;;;5129717;27;20050;-74
2022/10/13 11:33:53;;;;;;;7.15;2.33;;;;;;;;;;5129489;27;20043;-76
2022/10/13 11:36:31;;;;;;;5.40;1.48;;;;;;;;;;5127959;27;20047;-73
2022/10/13 11:39:12;;;;;;;2.72;1.85;;;;;;;;;;5127628;27;20051;-81
2022/10/13 11:41:57;;;;;;;;;;;;;;;;;;5128310;27;20058;-76
2022/10/13 11:44:37;;;;;;;3.03;1.20;;;;;;;;;;5128851;27;20290;-73
2022/10/13 11:47:28;;;;;;;2.53;1.00;;;;;;;;;;5128272;27;20055;-76
2022/10/13 11:50:22;;;;;;;0.90;0.90;;;;;;;;;;5128598;27;20043;-74
2022/10/13 11:53:19;;;;;;;3.00;1.08;;;;;;;;;;5128392;27;20043;-80
2022/10/13 11:55:51;;;;;;;8.35;1.45;;;;;;;;;;5128520;27;20059;-77
2022/10/13 11:58:30;;;;;;;5.55;2.00;;;;;;;;;;5128082;27;20054;-75
2022/10/13 12:01:05;;;;;;;2.10;1.27;;;;;;;;;;5128069;27;20059;-77
2022/10/13 12:03:37;;;;;;;3.05;1.40;;;;;;;;;;5129195;27;20047;-77
2022/10/13 12:06:32;;;;;;;6.82;2.00;;;;;;;;;;5128293;27;20050;-74
2022/10/13 12:09:18;;;;;;;2.83;1.20;;;;;;;;;;5128642;27;20054;-78
2022/10/13 12:12:00;;;;;;;5.97;1.52;;;;;;;;;;5128881;27;20410;-77
2022/10/13 12:14:37;;;;;;;;;;;;;;;;;;5129160;27;20401;-75
2022/10/13 12:17:29;;;;;;;2.70;1.23;;;;;;;;;;5110281;27;19923;-77
2022/10/13 12:20:02;;;;;;;2.95;1.20;;;;;;;;;;5128859;27;20043;-75
2022/10/13 12:22:32;;;;;;;3.85;1.13;;;;;;;;;;5127312;27;20050;-78
2022/10/13 12:25:16;;;;;;;4.10;1.50;;;;;;;;;;5128767;27;20047;-76
2022/10/13 12:27:52;;;;;;;2.72;1.02;;;;;;;;;;5128810;27;20498;-78
2022/10/13 12:30:35;;;;;;;5.53;1.83;;;;;;;;;;5129288;27;20035;-77
2022/10/13 12:33:23;;;;;;;1.83;1.00;;;;;;;;;;5128568;27;20046;-76
2022/10/13 12:35:53;;;;;;;2.92;1.00;;;;;;;;;;5127608;27;20594;-75
2022/10/13 12:38:23;;;;;;;2.22;0.85;;;;;;;;;;5128317;27;20492;-76
2022/10/13 12:40:54;;;;;;;2.65;0.77;;;;;;;;;;5127814;27;20058;-75
2022/10/13 12:43:25;;;;;;;4.75;1.90;;;;;;;;;;5127742;27;20158;-77
2022/10/13 12:45:55;;;;;;;3.15;2.00;;;;;;;;;;5127835;27;20046;-78
2022/10/13 12:48:36;;;;;;;3.10;1.10;;;;;;;;;;5128084;27;20039;-75
2022/10/13 12:51:27;;;;;;;3.08;1.10;;;;;;;;;;5128428;27;20537;-74
2022/10/13 12:53:57;;;;;;;0.80;0.73;;;;;;;;;;5127899;27;20055;-76
2022/10/13 12:56:28;;;;;;;1.98;0.93;;;;;;;;;;5128470;27;20043;-75
2022/10/13 12:58:58;;;;;;;0.80;0.70;;;;;;;;;;5127972;27;20051;-76
2022/10/13 13:01:32;;;;;;;1.33;0.73;;;;;;;;;;5127472;27;20047;-77
2022/10/13 13:04:17;;;;;;;7.10;0.90;;;;;;;;;;5125772;27;20062;-78
2022/10/13 13:06:59;;;;;;;3.03;0.90;;;;;;;;;;5127888;27;20047;-75
2022/10/13 13:09:30;;;;;;;0.93;0.70;;;;;;;;;;5127932;27;20043;-78
2022/10/13 13:12:22;;;;;;;2.05;1.20;;;;;;;;;;5128337;27;20054;-78
2022/10/13 13:14:53;;;;;;;4.07;1.73;;;;;;;;;;5127363;27;20051;-76
2022/10/13 13:17:28;;;;;;;0.90;0.70;;;;;;;;;;5127755;27;20043;-76
2022/10/13 13:20:28;;;;;;;0.55;0.52;;;;;;;;;;5126851;27;20051;-79
2022/10/13 13:22:59;;;;;;;1.15;0.90;;;;;;;;;;5126076;27;20050;-79
2022/10/13 13:25:29;;;;;;;8.68;1.58;;;;;;;;;;5127287;27;20035;-77
2022/10/13 13:28:04;;;;;;;6.28;1.10;;;;;;;;;;5127376;27;20058;-79
2022/10/13 13:30:34;;;;;;;4.40;0.73;;;;;;;;;;5128437;27;20050;-80
2022/10/13 13:33:03;;;;;;;0.98;0.57;;;;;;;;;;5128621;27;20054;-77
2022/10/13 13:35:34;;;;;;;1.00;0.80;;;;;;;;;;5127527;27;20047;-76
2022/10/13 13:38:05;;;;;;;3.83;0.70;;;;;;;;;;5127082;27;20058;-77
2022/10/13 13:40:34;;;;;;;8.55;0.88;;;;;;;;;;5127102;27;20540;-76
2022/10/13 13:43:04;;;;;;;4.10;0.70;;;;;;;;;;5127600;27;20039;-77
2022/10/13 13:45:34;;;;;;;1.02;0.60;;;;;;;;;;5127496;27;20039;-76
2022/10/13 13:48:06;;;;;;;4.05;0.80;;;;;;;;;;5126441;27;20505;-79
2022/10/13 13:50:37;;;;;;;3.40;2.28;;;;;;;;;;5127444;27;20039;-78
2022/10/13 13:53:07;;;;;;;1.67;0.63;;;;;;;;;;5128309;27;20054;-78
2022/10/13 13:55:37;;;;;;;1.27;0.50;;;;;;;;;;5127699;28;20378;-79
2022/10/13 13:58:09;;;;;;;0.50;0.40;;;;;;;;;;5126662;28;20055;-79
2022/10/13 14:00:39;;;;;;;1.70;0.60;;;;;;;;;;5126891;28;20043;-78
2022/10/13 14:03:09;;;;;;;1.40;0.50;;;;;;;;;;5124578;28;20505;-75
2022/10/13 14:05:41;;;;;;;1.15;0.60;;;;;;;;;;5127190;28;20051;-75
2022/10/13 14:08:14;;;;;;;2.00;1.10;;;;;;;;;;5125753;28;20059;-78
2022/10/13 14:10:44;;;;;;;1.33;0.63;;;;;;;;;;5125301;28;20059;-77
2022/10/13 14:13:18;;;;;;;3.67;1.05;;;;;;;;;;5126686;28;20058;-77
2022/10/13 14:15:56;;;;;;;1.15;0.60;;;;;;;;;;5128873;27;20054;-75
2022/10/13 14:18:27;;;;;;;1.30;0.70;;;;;;;;;;5130501;27;20047;-75
2022/10/13 14:20:57;;;;;;;6.85;4.28;;;;;;;;;;5131876;27;20047;-76
2022/10/13 14:23:26;;;;;;;0.70;0.43;;;;;;;;;;5131308;27;20494;-78
2022/10/13 14:25:56;;;;;;;1.30;0.73;;;;;;;;;;5130775;27;20608;-75
2022/10/13 14:28:26;;;;;;;2.42;0.82;;;;;;;;;;5130705;27;20484;-75
2022/10/13 14:30:57;;;;;;;2.70;0.85;;;;;;;;;;5131231;27;20093;-78
2022/10/13 14:33:28;;;;;;;2.15;1.10;;;;;;;;;;5130651;27;20050;-76
2022/10/13 14:36:06;;;;;;;2.05;0.80;;;;;;;;;;5130636;27;20055;-73
2022/10/13 14:38:36;;;;;;;3.65;1.13;;;;;;;;;;5132880;27;20051;-77
2022/10/13 14:41:06;;;;;;;2.08;1.00;;;;;;;;;;5132375;27;20051;-78
2022/10/13 14:43:36;;;;;;;7.88;1.00;;;;;;;;;;5129186;27;20047;-81
2022/10/13 14:46:06;;;;;;;1.15;0.80;;;;;;;;;;5130557;27;20054;-77
2022/10/13 14:48:36;;;;;;;1.52;0.98;;;;;;;;;;5130892;27;20043;-75
2022/10/13 14:51:08;;;;;;;4.95;1.30;;;;;;;;;;5130724;27;20043;-76
2022/10/13 14:53:41;;;;;;;2.70;1.15;;;;;;;;;;5130594;27;20055;-79
2022/10/13 14:56:19;;;;;;;2.95;1.50;;;;;;;;;;5129662;27;20038;-76
2022/10/13 14:58:55;;;;;;;3.90;1.52;;;;;;;;;;5130504;27;20628;-79
2022/10/13 15:01:32;;;;;;;4.93;1.40;;;;;;;;;;5129817;27;20047;-78
2022/10/13 15:04:02;;;;;;;2.08;1.30;;;;;;;;;;5129774;27;20047;-79
2022/10/13 15:06:33;;;;;;;5.72;1.55;;;;;;;;;;5130390;27;20055;-76
2022/10/13 15:09:02;;;;;;;5.10;1.75;;;;;;;;;;5130474;27;20401;-79
2022/10/13 15:11:32;;;;;;;1.90;1.42;;;;;;;;;;5131024;27;20429;-79
2022/10/13 15:14:02;;;;;;;3.58;1.50;;;;;;;;;;5130222;27;20054;-80
2022/10/13 15:16:32;;;;;;;2.65;1.73;;;;;;;;;;5130220;27;20058;-75
2022/10/13 15:19:04;;;;;;;3.65;1.77;;;;;;;;;;5129078;27;20054;-80
2022/10/13 15:21:34;;;;;;;3.92;1.92;;;;;;;;;;5129128;27;20054;-78
2022/10/13 15:24:04;;;;;;;3.30;1.70;;;;;;;;;;5129985;27;20047;-75
2022/10/13 15:26:35;;;;;;;4.55;1.83;;;;;;;;;;5129505;27;20498;-75
2022/10/13 15:29:05;;;;;;;5.45;1.80;;;;;;;;;;5130069;27;20513;-75
2022/10/13 15:31:35;;;;;;;3.30;1.75;;;;;;;;;;5129883;27;20533;-74
2022/10/13 15:34:05;;;;;;;5.10;1.67;;;;;;;;;;5130181;27;20051;-74